Terminal Aerodrome Forecast
Issued by NWS Twin Cities, MN

Home | Current Version | Previous Version | Text Only | Print | Product List | Glossary On
Versions: 1 2 3 4 5 6 7 8 9 10 11 12 13 14 15 16 17 18 19 20 21 22 23 24 25 26 27 28 29 30
497
FTUS43 KMPX 222336
TAFMSP
TAF
KMSP 222336Z 2300/2406 33012KT P6SM SCT030 BKN045
     FM230100 33012KT P6SM BKN030
     FM230400 33012KT P6SM OVC015
     FM231500 02010KT P6SM OVC025
     FM231900 03013G21KT P6SM OVC035
     FM240400 05015G27KT 3/4SM -SN BR OVC006=

USA.gov is the U.S. government's official web portal to all federal, state and local government web resources and services.